createdAt,value
2023-05-10T00:00:44.121Z,98.46
2023-05-10T00:03:11.242Z,98.31
2023-05-10T00:05:37.829Z,98.79
2023-05-10T00:08:04.342Z,98.49
2023-05-10T00:10:30.882Z,98.06
2023-05-10T00:12:57.432Z,98.68
2023-05-10T00:15:23.870Z,98.78
2023-05-10T00:17:51.844Z,98.97
2023-05-10T00:20:18.558Z,98.69
2023-05-10T00:22:45.304Z,99.00
2023-05-10T00:25:11.793Z,98.35
2023-05-10T00:27:38.705Z,98.41
2023-05-10T00:30:05.794Z,98.58
2023-05-10T00:32:32.432Z,98.65
2023-05-10T00:35:00.139Z,98.64
2023-05-10T00:37:28.656Z,98.76
2023-05-10T00:39:55.351Z,98.83
2023-05-10T00:42:22.177Z,98.77
2023-05-10T00:44:49.012Z,98.90
2023-05-10T00:47:16.892Z,98.67
2023-05-10T00:49:44.200Z,98.87
2023-05-10T00:52:13.675Z,98.83
2023-05-10T00:54:40.294Z,99.30
2023-05-10T00:57:06.841Z,99.02
2023-05-10T00:59:33.496Z,98.96
2023-05-10T01:02:00.005Z,99.46
2023-05-10T01:04:26.888Z,99.20
2023-05-10T01:06:54.689Z,99.61
2023-05-10T01:09:22.903Z,99.41
2023-05-10T01:11:50.302Z,99.49
2023-05-10T01:14:20.738Z,99.59
2023-05-10T01:16:49.472Z,99.63
2023-05-10T01:19:26.993Z,99.52
2023-05-10T01:22:19.778Z,99.83
2023-05-10T01:25:02.795Z,99.53
2023-05-10T01:28:04.521Z,99.45
2023-05-10T01:30:58.985Z,99.56
2023-05-10T01:33:48.682Z,99.73
2023-05-10T01:36:36.635Z,100.00
2023-05-10T01:39:17.006Z,100.00
2023-05-10T01:41:53.941Z,99.75
2023-05-10T01:44:40.990Z,100.00
2023-05-10T01:47:18.460Z,100.00
2023-05-10T01:49:51.270Z,99.90
2023-05-10T01:52:20.773Z,99.55
2023-05-10T01:55:12.446Z,99.89
2023-05-10T01:57:41.580Z,100.00
2023-05-10T02:00:09.694Z,99.69
2023-05-10T02:02:47.339Z,99.72
2023-05-10T02:05:16.221Z,99.99
2023-05-10T02:07:43.542Z,99.84
2023-05-10T02:10:11.604Z,100.00
2023-05-10T02:12:42.594Z,99.63
2023-05-10T02:15:11.385Z,99.81
2023-05-10T02:17:40.057Z,99.75
2023-05-10T02:20:09.507Z,100.00
2023-05-10T02:22:37.693Z,100.00
2023-05-10T02:25:05.242Z,100.00
2023-05-10T02:27:32.409Z,99.77
2023-05-10T02:29:59.517Z,100.00
2023-05-10T02:32:28.701Z,100.00
2023-05-10T02:34:57.993Z,99.82
2023-05-10T02:37:26.309Z,100.00
2023-05-10T02:39:55.944Z,100.00
2023-05-10T02:42:30.131Z,99.52
2023-05-10T02:45:02.273Z,100.00
2023-05-10T02:47:30.029Z,100.00
2023-05-10T02:49:56.603Z,100.00
2023-05-10T02:52:27.364Z,99.78
2023-05-10T02:54:57.897Z,100.00
2023-05-10T02:57:32.724Z,99.67
2023-05-10T03:00:01.137Z,99.75
2023-05-10T03:02:28.000Z,99.93
2023-05-10T03:04:54.512Z,99.82
2023-05-10T03:07:22.323Z,99.46
2023-05-10T03:09:51.604Z,99.59
2023-05-10T03:12:33.563Z,99.83
2023-05-10T03:15:32.245Z,99.60
2023-05-10T03:18:10.416Z,99.66
2023-05-10T03:20:42.320Z,99.15
2023-05-10T03:23:14.628Z,99.74
2023-05-10T03:25:42.125Z,99.76
2023-05-10T03:28:09.684Z,99.49
2023-05-10T03:30:36.704Z,99.69
2023-05-10T03:33:10.114Z,99.71
2023-05-10T03:35:40.345Z,99.49
2023-05-10T03:38:06.954Z,99.77
2023-05-10T03:40:33.514Z,99.42
2023-05-10T03:43:00.479Z,99.58
2023-05-10T03:45:27.711Z,99.58
2023-05-10T03:47:54.945Z,99.75
2023-05-10T03:50:21.995Z,99.83
2023-05-10T03:52:48.765Z,99.48
2023-05-10T03:55:15.269Z,99.59
2023-05-10T03:57:41.717Z,99.70
2023-05-10T04:00:09.166Z,99.38
2023-05-10T04:02:41.848Z,99.90
2023-05-10T04:05:11.857Z,99.48
2023-05-10T04:07:38.413Z,99.67
2023-05-10T04:10:05.326Z,99.76
2023-05-10T04:12:31.865Z,99.79
2023-05-10T04:14:58.504Z,99.77
2023-05-10T04:17:25.000Z,99.97
2023-05-10T04:19:53.987Z,100.00
2023-05-10T04:22:20.441Z,99.90
2023-05-10T04:24:46.937Z,100.00
2023-05-10T04:27:13.699Z,99.86
2023-05-10T04:29:40.244Z,99.94
2023-05-10T04:32:06.724Z,99.97
2023-05-10T04:34:35.033Z,99.78
2023-05-10T04:37:01.601Z,99.96
2023-05-10T04:39:28.106Z,100.00
2023-05-10T04:41:54.564Z,100.00
2023-05-10T04:44:21.159Z,99.99
2023-05-10T04:46:47.614Z,100.00
2023-05-10T04:49:15.259Z,100.00
2023-05-10T04:51:41.712Z,100.00
2023-05-10T04:54:08.153Z,100.00
2023-05-10T04:56:34.822Z,100.00
2023-05-10T04:59:01.374Z,100.00
2023-05-10T05:01:28.080Z,99.97
2023-05-10T05:03:54.931Z,100.00
2023-05-10T05:06:25.854Z,100.00
2023-05-10T05:08:52.463Z,100.00
2023-05-10T05:11:18.949Z,100.00
2023-05-10T05:13:45.363Z,100.00
2023-05-10T05:16:14.564Z,100.00
2023-05-10T05:18:41.069Z,99.95
2023-05-10T05:21:18.035Z,100.00
2023-05-10T05:23:44.917Z,100.00
2023-05-10T05:26:11.643Z,100.00
2023-05-10T05:28:38.761Z,99.99
2023-05-10T05:31:06.597Z,100.00
2023-05-10T05:33:33.207Z,100.00
2023-05-10T05:36:05.460Z,100.00
2023-05-10T05:38:32.390Z,100.00
2023-05-10T05:40:58.971Z,100.00
2023-05-10T05:43:25.710Z,99.89
2023-05-10T05:45:54.836Z,99.84
2023-05-10T05:48:22.026Z,100.00
2023-05-10T05:50:48.481Z,100.00
2023-05-10T05:53:15.093Z,100.00
2023-05-10T05:55:41.597Z,100.00
2023-05-10T05:58:09.083Z,100.00
2023-05-10T06:00:35.745Z,100.00
2023-05-10T06:03:02.341Z,100.00
2023-05-10T06:05:30.976Z,100.00
2023-05-10T06:07:57.422Z,99.76
2023-05-10T06:10:23.977Z,100.00
2023-05-10T06:12:51.812Z,99.70
2023-05-10T06:15:18.488Z,100.00
2023-05-10T06:17:45.276Z,99.95
2023-05-10T06:20:12.576Z,100.00
2023-05-10T06:22:39.368Z,99.59
2023-05-10T06:25:06.287Z,99.70
2023-05-10T06:27:32.746Z,99.32
2023-05-10T06:30:11.923Z,99.39
2023-05-10T06:32:39.751Z,99.87
2023-05-10T06:35:06.863Z,99.86
2023-05-10T06:37:33.401Z,99.53
2023-05-10T06:39:59.906Z,99.72
2023-05-10T06:42:26.528Z,99.22
2023-05-10T06:44:52.996Z,99.24
2023-05-10T06:47:19.770Z,99.45
2023-05-10T06:49:46.255Z,99.45
2023-05-10T06:52:13.154Z,99.26
2023-05-10T06:54:39.642Z,98.82
2023-05-10T06:57:16.065Z,98.85
2023-05-10T06:59:50.487Z,98.80
2023-05-10T07:02:17.473Z,98.71
2023-05-10T07:04:44.230Z,98.43
2023-05-10T07:07:10.755Z,98.17
2023-05-10T07:09:37.312Z,98.59
2023-05-10T07:12:03.971Z,97.98
2023-05-10T07:14:30.371Z,97.75
2023-05-10T07:16:56.877Z,97.92
2023-05-10T07:19:23.377Z,97.80
2023-05-10T07:21:49.886Z,97.45
2023-05-10T07:24:16.336Z,97.69
2023-05-10T07:26:42.842Z,97.54
2023-05-10T07:29:09.389Z,97.04
2023-05-10T07:31:35.975Z,97.29
2023-05-10T07:34:02.457Z,97.19
2023-05-10T07:36:28.936Z,97.06
2023-05-10T07:38:58.519Z,97.15
2023-05-10T07:41:24.975Z,97.07
2023-05-10T07:43:51.431Z,96.80
2023-05-10T07:46:17.998Z,96.58
2023-05-10T07:48:44.536Z,97.34
2023-05-10T07:51:11.717Z,96.37
2023-05-10T07:53:38.810Z,95.80
2023-05-10T07:56:27.519Z,96.59
2023-05-10T07:58:55.266Z,96.81
2023-05-10T08:01:21.783Z,95.88
2023-05-10T08:03:48.613Z,95.94
2023-05-10T08:06:16.451Z,95.12
2023-05-10T08:08:43.153Z,95.92
2023-05-10T08:11:09.615Z,95.64
2023-05-10T08:13:36.011Z,94.68
2023-05-10T08:16:02.763Z,95.55
2023-05-10T08:18:29.324Z,94.46
2023-05-10T08:20:56.166Z,94.86
2023-05-10T08:23:22.660Z,95.02
2023-05-10T08:25:49.446Z,94.75
2023-05-10T08:28:16.100Z,94.64
2023-05-10T08:30:42.532Z,95.77
2023-05-10T08:33:08.961Z,94.82
2023-05-10T08:35:35.852Z,95.33
2023-05-10T08:38:02.507Z,95.22
2023-05-10T08:40:29.163Z,95.38
2023-05-10T08:43:10.489Z,94.80
2023-05-10T08:45:41.839Z,95.30
2023-05-10T08:48:10.440Z,94.52
2023-05-10T08:50:38.321Z,94.73
2023-05-10T08:53:11.564Z,95.12
2023-05-10T08:55:39.660Z,93.83
2023-05-10T08:58:06.866Z,94.99
2023-05-10T09:00:34.229Z,94.21
2023-05-10T09:03:01.821Z,94.95
2023-05-10T09:05:28.578Z,93.45
2023-05-10T09:07:55.059Z,93.99
2023-05-10T09:10:21.869Z,93.55
2023-05-10T09:12:49.677Z,92.41
2023-05-10T09:15:16.946Z,92.36
2023-05-10T09:17:45.304Z,91.32
2023-05-10T09:20:11.928Z,91.35
2023-05-10T09:22:39.308Z,90.00
2023-05-10T09:25:07.163Z,90.32
2023-05-10T09:27:34.708Z,91.33
2023-05-10T09:30:01.680Z,91.21
2023-05-10T09:32:48.652Z,89.85
2023-05-10T09:35:17.309Z,89.04
2023-05-10T09:37:47.154Z,88.32
2023-05-10T09:40:16.310Z,84.91
2023-05-10T09:43:07.030Z,85.11
2023-05-10T09:45:37.166Z,84.73
2023-05-10T09:48:05.718Z,83.95
2023-05-10T09:50:32.316Z,83.92
2023-05-10T09:53:01.365Z,82.61
2023-05-10T09:55:39.753Z,85.78
2023-05-10T09:58:10.928Z,84.19
2023-05-10T10:00:45.031Z,84.86
2023-05-10T10:03:17.293Z,83.17
2023-05-10T10:05:44.993Z,84.16
2023-05-10T10:08:12.975Z,85.44
2023-05-10T10:10:42.807Z,83.27
2023-05-10T10:13:09.525Z,86.55
2023-05-10T10:16:04.896Z,85.60
2023-05-10T10:18:31.955Z,84.88
2023-05-10T10:20:59.499Z,84.65
2023-05-10T10:23:26.404Z,84.63
2023-05-10T10:25:56.252Z,83.23
2023-05-10T10:28:40.461Z,83.58
2023-05-10T10:31:29.440Z,84.15
2023-05-10T10:34:08.422Z,85.19
2023-05-10T10:36:55.912Z,85.38
2023-05-10T10:39:22.524Z,82.44
2023-05-10T10:41:54.238Z,84.47
2023-05-10T10:44:23.879Z,84.67
2023-05-10T10:47:35.196Z,85.42
2023-05-10T10:50:01.921Z,84.65
2023-05-10T10:52:36.345Z,81.47
2023-05-10T10:55:25.839Z,82.05
2023-05-10T10:58:05.070Z,80.99
2023-05-10T11:00:38.132Z,81.56
2023-05-10T11:03:09.084Z,82.78
2023-05-10T11:05:36.651Z,81.37
2023-05-10T11:08:28.857Z,82.76
2023-05-10T11:11:01.325Z,83.64
2023-05-10T11:13:30.953Z,83.31
2023-05-10T11:15:58.442Z,80.83
2023-05-10T11:18:30.448Z,81.87
2023-05-10T11:21:03.655Z,83.94
2023-05-10T11:23:48.937Z,82.92
2023-05-10T11:26:16.983Z,82.23
2023-05-10T11:28:48.171Z,82.51
2023-05-10T11:31:16.076Z,80.05
2023-05-10T11:33:53.470Z,82.50
2023-05-10T11:36:22.873Z,82.02
2023-05-10T11:38:49.657Z,80.86
2023-05-10T11:41:18.471Z,79.63
2023-05-10T11:43:47.703Z,78.99
2023-05-10T11:46:14.781Z,76.43
2023-05-10T11:48:42.433Z,76.96
2023-05-10T11:51:10.397Z,73.61
2023-05-10T11:53:36.922Z,75.53
2023-05-10T11:56:07.696Z,78.32
2023-05-10T11:58:35.162Z,75.99
2023-05-10T12:01:01.859Z,74.80
2023-05-10T12:03:29.188Z,75.44
2023-05-10T12:05:57.157Z,78.80
2023-05-10T12:08:26.073Z,78.20
2023-05-10T12:11:04.256Z,78.38
2023-05-10T12:13:30.716Z,78.47
2023-05-10T12:16:01.521Z,77.40
2023-05-10T12:18:27.976Z,77.41
2023-05-10T12:20:54.824Z,78.56
2023-05-10T12:23:21.744Z,75.58
2023-05-10T12:25:48.183Z,74.63
2023-05-10T12:28:14.658Z,75.66
2023-05-10T12:30:41.143Z,75.49
2023-05-10T12:33:16.205Z,75.11
2023-05-10T12:35:47.719Z,75.03
2023-05-10T12:38:35.604Z,75.19
2023-05-10T12:41:05.206Z,77.14
2023-05-10T12:43:32.475Z,73.37
2023-05-10T12:45:59.772Z,72.76
2023-05-10T12:48:26.199Z,70.33
2023-05-10T12:50:52.711Z,71.19
2023-05-10T12:53:19.088Z,75.07
2023-05-10T12:55:45.665Z,71.34
2023-05-10T12:58:17.912Z,72.87
2023-05-10T13:00:54.820Z,71.12
2023-05-10T13:03:21.294Z,72.26
2023-05-10T13:05:47.753Z,73.01
2023-05-10T13:08:14.241Z,74.39
2023-05-10T13:10:41.207Z,74.70
2023-05-10T13:13:09.229Z,75.60
2023-05-10T13:15:35.945Z,74.97
2023-05-10T13:18:02.695Z,75.54
2023-05-10T13:20:29.241Z,76.70
2023-05-10T13:22:55.639Z,77.44
2023-05-10T13:25:22.083Z,78.73
2023-05-10T13:27:48.502Z,80.83
2023-05-10T13:30:15.192Z,82.34
2023-05-10T13:32:41.816Z,83.04
2023-05-10T13:35:09.007Z,84.42
2023-05-10T13:37:38.188Z,86.85
2023-05-10T13:40:05.592Z,87.85
2023-05-10T13:42:34.558Z,87.82
2023-05-10T13:45:02.633Z,87.61
2023-05-10T13:47:29.366Z,88.18
2023-05-10T13:49:56.210Z,90.26
2023-05-10T13:52:22.673Z,89.40
2023-05-10T13:54:51.689Z,90.62
2023-05-10T13:57:18.155Z,91.57
2023-05-10T13:59:44.614Z,92.23
2023-05-10T14:02:13.699Z,91.63
2023-05-10T14:04:40.323Z,91.92
2023-05-10T14:07:06.802Z,90.91
2023-05-10T14:09:33.253Z,91.42
2023-05-10T14:11:59.733Z,91.99
2023-05-10T14:14:26.295Z,92.60
2023-05-10T14:16:52.905Z,92.46
2023-05-10T14:19:19.376Z,92.13
2023-05-10T14:21:45.867Z,92.63
2023-05-10T14:24:15.480Z,92.08
2023-05-10T14:26:41.907Z,93.04
2023-05-10T14:29:09.947Z,92.79
2023-05-10T14:31:38.017Z,92.38
2023-05-10T14:34:04.438Z,92.59
2023-05-10T14:36:30.849Z,91.99
2023-05-10T14:38:57.250Z,92.73
2023-05-10T14:41:24.043Z,92.51
2023-05-10T14:43:51.679Z,92.57
2023-05-10T14:46:18.568Z,92.26
2023-05-10T14:48:45.010Z,92.95
2023-05-10T14:51:11.955Z,93.12
2023-05-10T14:53:39.489Z,93.07
2023-05-10T14:56:06.284Z,92.95
2023-05-10T14:58:34.147Z,92.25
2023-05-10T15:01:01.132Z,92.96
2023-05-10T15:03:28.190Z,92.94
2023-05-10T15:05:56.946Z,92.62
2023-05-10T15:08:24.535Z,92.32
2023-05-10T15:10:51.571Z,92.01
2023-05-10T15:13:18.124Z,92.61
2023-05-10T15:15:44.576Z,92.47
2023-05-10T15:18:11.693Z,92.74
2023-05-10T15:20:38.230Z,92.62
2023-05-10T15:23:04.730Z,92.81
2023-05-10T15:25:31.202Z,92.79
2023-05-10T15:27:57.595Z,92.74
2023-05-10T15:30:24.044Z,92.53
2023-05-10T15:32:50.872Z,92.49
2023-05-10T15:35:17.935Z,92.92
2023-05-10T15:37:44.544Z,92.24
2023-05-10T15:40:11.417Z,92.65
2023-05-10T15:42:37.874Z,92.49
2023-05-10T15:45:04.912Z,91.78
2023-05-10T15:47:31.721Z,91.73
2023-05-10T15:50:00.393Z,91.56
2023-05-10T15:52:27.227Z,92.31
2023-05-10T15:54:53.749Z,92.57
2023-05-10T15:57:20.173Z,91.14
2023-05-10T15:59:46.690Z,91.91
2023-05-10T16:02:13.788Z,91.25
2023-05-10T16:04:40.338Z,91.26
2023-05-10T16:07:07.020Z,90.65
2023-05-10T16:09:33.465Z,90.20
2023-05-10T16:11:59.956Z,90.38
2023-05-10T16:14:26.540Z,90.16
2023-05-10T16:16:53.088Z,89.97
2023-05-10T16:19:19.682Z,89.82
2023-05-10T16:21:47.265Z,90.84
2023-05-10T16:24:13.756Z,91.29
2023-05-10T16:26:41.106Z,89.52
2023-05-10T16:29:08.624Z,90.68
2023-05-10T16:31:35.468Z,90.56
2023-05-10T16:34:02.255Z,90.00
2023-05-10T16:36:29.612Z,90.73
2023-05-10T16:38:56.480Z,90.53
2023-05-10T16:41:22.976Z,90.99
2023-05-10T16:43:51.133Z,89.89
2023-05-10T16:46:17.590Z,90.14
2023-05-10T16:48:44.137Z,89.87
2023-05-10T16:51:10.656Z,90.33
2023-05-10T16:53:37.777Z,90.13
2023-05-10T16:56:04.426Z,90.13
2023-05-10T16:58:30.919Z,89.40
2023-05-10T17:00:57.314Z,89.65
2023-05-10T17:03:23.833Z,90.11
2023-05-10T17:05:51.666Z,88.85
2023-05-10T17:08:18.059Z,89.53
2023-05-10T17:10:44.476Z,89.87
2023-05-10T17:13:10.941Z,88.82
2023-05-10T17:15:40.049Z,90.00
2023-05-10T17:18:07.514Z,89.92
2023-05-10T17:20:34.360Z,89.79
2023-05-10T17:23:02.608Z,89.53
2023-05-10T17:25:29.346Z,90.16
2023-05-10T17:27:55.770Z,90.39
2023-05-10T17:30:26.250Z,89.78
2023-05-10T17:32:54.135Z,89.91
2023-05-10T17:35:21.319Z,90.18
2023-05-10T17:37:47.921Z,90.72
2023-05-10T17:40:14.649Z,89.98
2023-05-10T17:42:41.812Z,89.61
2023-05-10T17:45:08.954Z,90.20
2023-05-10T17:47:35.647Z,89.41
2023-05-10T17:50:02.269Z,88.91
2023-05-10T17:52:31.364Z,89.66
2023-05-10T17:54:59.681Z,88.82
2023-05-10T17:57:26.278Z,88.98
2023-05-10T17:59:55.280Z,89.17
2023-05-10T18:02:21.884Z,89.35
2023-05-10T18:04:49.753Z,89.58
2023-05-10T18:07:16.496Z,89.71
2023-05-10T18:09:42.950Z,89.56
2023-05-10T18:12:09.380Z,89.32
2023-05-10T18:14:41.017Z,88.16
2023-05-10T18:17:09.048Z,89.14
2023-05-10T18:19:35.727Z,89.01
2023-05-10T18:22:04.125Z,88.46
2023-05-10T18:27:03.313Z,89.72
2023-05-10T18:29:29.812Z,89.07
2023-05-10T18:31:56.376Z,89.60
2023-05-10T18:34:22.882Z,89.72
2023-05-10T18:36:49.450Z,90.04
2023-05-10T18:39:17.938Z,89.54
2023-05-10T18:41:45.704Z,89.67
2023-05-10T18:44:14.982Z,90.54
2023-05-10T18:46:42.564Z,89.81
2023-05-10T18:49:09.290Z,89.84
2023-05-10T18:51:36.022Z,90.15
2023-05-10T18:54:02.599Z,90.06
2023-05-10T18:56:29.118Z,90.41
2023-05-10T18:58:55.755Z,90.37
2023-05-10T19:01:22.486Z,90.00
2023-05-10T19:03:48.951Z,89.91
2023-05-10T19:06:16.509Z,90.70
2023-05-10T19:08:43.164Z,90.35
2023-05-10T19:11:09.658Z,90.52
2023-05-10T19:13:38.558Z,90.35
2023-05-10T19:16:20.214Z,91.16
2023-05-10T19:18:47.064Z,91.17
2023-05-10T19:21:13.725Z,91.63
2023-05-10T19:23:41.948Z,91.64
2023-05-10T19:26:10.538Z,91.50
2023-05-10T19:28:38.501Z,91.56
2023-05-10T19:31:06.048Z,92.01
2023-05-10T19:33:36.216Z,92.04
2023-05-10T19:36:04.282Z,92.38
2023-05-10T19:38:34.410Z,92.19
2023-05-10T19:41:01.126Z,92.48
2023-05-10T19:43:28.598Z,92.02
2023-05-10T19:46:00.014Z,92.02
2023-05-10T19:48:27.690Z,92.06
2023-05-10T19:50:54.724Z,92.16
2023-05-10T19:53:21.381Z,92.08
2023-05-10T19:55:48.350Z,92.10
2023-05-10T19:58:14.804Z,92.11
2023-05-10T20:00:41.262Z,91.99
2023-05-10T20:03:09.464Z,91.58
2023-05-10T20:05:36.080Z,92.30
2023-05-10T20:08:02.881Z,92.26
2023-05-10T20:10:29.544Z,92.14
2023-05-10T20:12:56.156Z,92.17
2023-05-10T20:15:24.291Z,91.99
2023-05-10T20:17:53.120Z,92.36
2023-05-10T20:20:20.627Z,92.57
2023-05-10T20:22:48.321Z,92.83
2023-05-10T20:25:16.562Z,92.52
2023-05-10T20:27:43.438Z,92.76
2023-05-10T20:30:10.446Z,92.77
2023-05-10T20:32:38.636Z,93.10
2023-05-10T20:35:06.181Z,92.98
2023-05-10T20:37:32.958Z,93.17
2023-05-10T20:40:00.801Z,93.06
2023-05-10T20:42:27.352Z,93.00
2023-05-10T20:44:53.804Z,93.14
2023-05-10T20:47:20.438Z,93.33
2023-05-10T20:49:46.862Z,93.11
2023-05-10T20:52:14.476Z,93.49
2023-05-10T20:54:40.869Z,93.06
2023-05-10T20:57:07.572Z,93.30
2023-05-10T20:59:34.231Z,92.98
2023-05-10T21:02:01.052Z,93.08
2023-05-10T21:04:27.828Z,92.80
2023-05-10T21:06:55.624Z,93.02
2023-05-10T21:09:22.514Z,92.94
2023-05-10T21:11:50.179Z,92.90
2023-05-10T21:14:16.752Z,93.25
2023-05-10T21:16:43.587Z,93.30
2023-05-10T21:19:10.244Z,93.35
2023-05-10T21:21:36.769Z,93.18
2023-05-10T21:24:03.448Z,93.06
2023-05-10T21:26:29.964Z,92.98
2023-05-10T21:28:56.596Z,92.95
2023-05-10T21:31:23.113Z,93.29
2023-05-10T21:33:49.540Z,93.19
2023-05-10T21:36:16.240Z,93.02
2023-05-10T21:38:44.434Z,93.13
2023-05-10T21:41:11.311Z,93.06
2023-05-10T21:43:37.861Z,93.26
2023-05-10T21:46:04.668Z,92.88
2023-05-10T21:48:32.542Z,93.13
2023-05-10T21:50:59.391Z,93.02
2023-05-10T21:53:25.873Z,92.89
2023-05-10T21:55:52.447Z,93.10
2023-05-10T21:58:18.930Z,93.18
2023-05-10T22:00:45.971Z,92.97
2023-05-10T22:03:13.622Z,93.11
2023-05-10T22:05:40.312Z,93.19
2023-05-10T22:08:07.580Z,93.29
2023-05-10T22:10:34.098Z,93.41
2023-05-10T22:13:00.730Z,93.42
2023-05-10T22:15:27.260Z,93.41
2023-05-10T22:17:54.833Z,93.54
2023-05-10T22:20:21.373Z,93.40
2023-05-10T22:22:47.809Z,93.31
2023-05-10T22:25:14.462Z,93.41
2023-05-10T22:27:40.972Z,93.77
2023-05-10T22:30:08.152Z,93.66
2023-05-10T22:32:34.729Z,93.88
2023-05-10T22:35:01.291Z,93.93
2023-05-10T22:37:27.803Z,94.07
2023-05-10T22:39:54.240Z,93.89
2023-05-10T22:42:22.136Z,93.66
2023-05-10T22:44:48.627Z,93.77
2023-05-10T22:47:16.349Z,93.63
2023-05-10T22:49:42.797Z,93.78
2023-05-10T22:52:09.752Z,94.32
2023-05-10T22:54:36.384Z,93.91
2023-05-10T22:57:03.144Z,93.97
2023-05-10T22:59:29.650Z,93.67
2023-05-10T23:01:56.190Z,93.77
2023-05-10T23:04:22.724Z,93.66
2023-05-10T23:06:49.445Z,94.05
2023-05-10T23:09:16.375Z,93.64
2023-05-10T23:11:43.104Z,94.02
2023-05-10T23:14:09.597Z,93.85
2023-05-10T23:16:36.137Z,93.69
2023-05-10T23:19:02.728Z,93.93
2023-05-10T23:21:31.303Z,94.41
2023-05-10T23:23:58.596Z,94.27
2023-05-10T23:26:25.137Z,94.30
2023-05-10T23:28:51.651Z,94.32
2023-05-10T23:31:18.401Z,94.60
2023-05-10T23:33:44.886Z,94.26
2023-05-10T23:36:11.530Z,94.41
2023-05-10T23:38:38.268Z,94.25
2023-05-10T23:41:04.742Z,94.04
2023-05-10T23:43:31.564Z,94.34
2023-05-10T23:45:58.568Z,93.79
2023-05-10T23:48:25.156Z,94.11
2023-05-10T23:50:51.785Z,94.02
2023-05-10T23:53:18.334Z,94.17
2023-05-10T23:55:45.354Z,94.27
2023-05-10T23:58:12.517Z,94.20
